Ann Arbor Township, Michigan
Current Conditions -  °F | °C
As of 4:53 PM on Friday 19 Dec 2014 (Local Time) from KARB Reporting Station
Overcast Overcast  
Wind Chill: 23°   Ceiling: 1900
Heat Index: 28°   Visibility: 10mi
Dew Point: 22°   Wind: 5mph
Humidity: 78%   Direction: 350°N
Pressure: 30.27"   Gusts: NA
Location:  42.3281°N, 83.7037°W
Report Text: KARB 192153Z 35004KT 10SM OVC019 M02/M06 A3027 RMK AO2 SLP262 T10221056
Loading
Personal Weather Stations






























Interactive Weather Map New forecast layout! Learn more

10-Day Weather Forecast

Advertisements
Track Severe Weather on mobile